Time;durP1;ratioP1;P1;durP2;ratioP2;P2;SDS_P1;SDS_P2;PMS_P1;PMS_P2;Temp;Humidity;BMP_temperature;BMP_pressure;BME280_temperature;BME280_humidity;BME280_pressure;Samples;Min_cycle;Max_cycle;Signal;HPM_P1;HPM_P2
2021/10/16 00:00:39;;;;;;;15.63;3.72;;;8.40;92.20;;;;;;5082016;28;20020;-76
2021/10/16 00:03:04;;;;;;;19.77;4.82;;;8.40;92.50;;;;;;5075638;28;20227;-76
2021/10/16 00:05:30;;;;;;;19.02;4.32;;;8.40;92.30;;;;;;5057357;28;20506;-75
2021/10/16 00:07:56;;;;;;;11.93;3.15;;;8.40;92.20;;;;;;5059126;28;20491;-75
2021/10/16 00:10:22;;;;;;;15.20;3.25;;;8.40;92.30;;;;;;5076871;28;20440;-75
2021/10/16 00:12:47;;;;;;;13.43;3.60;;;8.40;92.40;;;;;;5059672;28;20024;-76
2021/10/16 00:15:14;;;;;;;16.25;3.42;;;8.40;92.40;;;;;;5075181;28;20526;-75
2021/10/16 00:17:39;;;;;;;16.00;3.47;;;8.40;92.50;;;;;;5074631;28;20372;-76
2021/10/16 00:20:06;;;;;;;22.75;4.65;;;8.40;92.50;;;;;;5075005;28;20487;-75
2021/10/16 00:22:32;;;;;;;10.70;3.15;;;8.30;92.50;;;;;;5056185;28;20469;-74
2021/10/16 00:24:58;;;;;;;12.20;3.90;;;8.30;92.50;;;;;;5074220;28;20415;-75
2021/10/16 00:27:24;;;;;;;15.75;3.83;;;8.30;92.50;;;;;;5055938;28;20032;-76
2021/10/16 00:29:49;;;;;;;22.60;4.20;;;8.30;92.50;;;;;;5056005;28;20021;-75
2021/10/16 00:32:15;;;;;;;16.30;3.28;;;8.30;92.40;;;;;;5056071;28;20052;-76
2021/10/16 00:34:41;;;;;;;15.75;4.18;;;8.20;92.20;;;;;;5074204;28;20492;-75
2021/10/16 00:37:06;;;;;;;13.52;3.38;;;8.20;92.20;;;;;;5055982;28;20246;-76
2021/10/16 00:39:32;;;;;;;17.58;3.65;;;8.20;92.40;;;;;;5055920;28;20020;-75
2021/10/16 00:41:57;;;;;;;15.82;3.35;;;8.10;92.10;;;;;;5055962;28;20027;-76
2021/10/16 00:44:25;;;;;;;17.17;4.47;;;8.10;92.00;;;;;;5073883;28;20036;-75
2021/10/16 00:46:54;;;;;;;18.13;3.92;;;8.20;92.20;;;;;;5055760;28;20048;-76
2021/10/16 00:49:19;;;;;;;20.30;5.97;;;8.50;96.60;;;;;;5073759;28;20025;-75
2021/10/16 00:51:46;;;;;;;23.48;6.00;;;8.00;92.10;;;;;;5073725;28;20487;-74
2021/10/16 00:54:12;;;;;;;23.40;8.23;;;8.00;92.20;;;;;;5055999;28;20127;-75
2021/10/16 00:56:40;;;;;;;25.92;8.48;;;8.00;92.30;;;;;;5074512;28;20025;-75
2021/10/16 00:59:06;;;;;;;33.13;11.40;;;8.00;92.30;;;;;;5056901;28;20024;-75
2021/10/16 01:01:33;;;;;;;31.92;12.85;;;7.90;92.20;;;;;;5074868;28;20074;-75
2021/10/16 01:04:00;;;;;;;25.15;9.93;;;7.80;92.20;;;;;;5076468;28;20035;-75
2021/10/16 01:06:26;;;;;;;27.08;9.63;;;7.80;92.10;;;;;;5062832;28;20047;-75
2021/10/16 01:08:56;;;;;;;25.80;8.05;;;7.80;92.10;;;;;;5075074;28;20376;-74
2021/10/16 01:11:35;;;;;;;;;;;7.70;92.10;;;;;;5086170;28;20103;-74
2021/10/16 01:14:12;;;;;;;17.98;5.75;;;7.70;92.10;;;;;;5056458;28;20391;-75
2021/10/16 01:16:41;;;;;;;15.55;4.45;;;7.60;92.20;;;;;;5072842;28;20021;-75
2021/10/16 01:19:13;;;;;;;18.80;3.35;;;7.70;92.20;;;;;;5054894;28;20025;-76
2021/10/16 01:21:44;;;;;;;15.82;5.85;;;7.60;92.30;;;;;;5072652;28;20025;-75
2021/10/16 01:24:11;;;;;;;14.23;5.05;;;7.60;92.40;;;;;;5072797;28;20017;-75
2021/10/16 01:26:38;;;;;;;16.00;4.00;;;7.60;92.60;;;;;;5054154;28;20029;-75
2021/10/16 01:29:04;;;;;;;30.52;10.15;;;7.60;92.70;;;;;;5054888;28;20027;-75
2021/10/16 01:31:30;;;;;;;20.00;8.32;;;7.60;92.80;;;;;;5054644;28;20480;-75
2021/10/16 01:33:55;;;;;;;19.15;8.15;;;7.60;92.70;;;;;;5054662;28;20158;-75
2021/10/16 01:36:21;;;;;;;23.30;7.85;;;7.60;92.70;;;;;;5054775;28;20032;-75
2021/10/16 01:38:47;;;;;;;23.92;5.65;;;7.50;92.70;;;;;;5054583;28;20066;-74
2021/10/16 01:41:13;;;;;;;22.90;5.45;;;7.50;92.70;;;;;;5054637;28;20025;-75
2021/10/16 01:43:40;;;;;;;20.08;5.38;;;7.50;92.80;;;;;;5072127;28;20377;-75
2021/10/16 01:46:05;;;;;;;13.30;4.65;;;7.50;92.70;;;;;;5072660;28;20029;-75
2021/10/16 01:48:31;;;;;;;21.35;4.68;;;7.50;92.70;;;;;;5072980;28;20078;-75
2021/10/16 01:50:57;;;;;;;16.83;4.57;;;7.50;92.60;;;;;;5074476;28;20461;-75
2021/10/16 01:53:23;;;;;;;21.05;4.63;;;7.50;92.50;;;;;;5079377;28;20028;-75
2021/10/16 01:55:49;;;;;;;17.77;4.75;;;7.40;92.40;;;;;;5076304;28;20024;-74
2021/10/16 01:58:16;;;;;;;15.98;4.75;;;7.40;92.40;;;;;;5055533;28;20028;-75
2021/10/16 02:00:47;;;;;;;11.60;3.95;;;7.40;92.40;;;;;;5073946;28;20024;-75
2021/10/16 02:03:13;;;;;;;15.05;4.57;;;7.40;92.40;;;;;;5072965;28;20043;-75
2021/10/16 02:05:44;;;;;;;17.88;4.32;;;7.40;92.50;;;;;;5054146;28;20035;-75
2021/10/16 02:08:13;;;;;;;16.67;3.25;;;7.50;92.70;;;;;;5072550;28;20020;-75
2021/10/16 02:10:40;;;;;;;16.35;4.00;;;7.40;92.70;;;;;;5054206;28;20055;-75
2021/10/16 02:13:06;;;;;;;18.98;5.35;;;7.50;92.80;;;;;;5054122;28;20032;-75
2021/10/16 02:15:31;;;;;;;12.73;3.28;;;7.50;92.70;;;;;;5072659;28;20112;-75
2021/10/16 02:17:57;;;;;;;15.80;5.47;;;7.50;92.70;;;;;;5054396;28;20021;-75
2021/10/16 02:20:23;;;;;;;19.05;6.75;;;7.50;92.70;;;;;;5054320;28;20047;-75
2021/10/16 02:22:49;;;;;;;17.48;5.47;;;7.50;92.80;;;;;;5053708;28;20029;-75
2021/10/16 02:25:14;;;;;;;20.63;6.05;;;7.60;92.90;;;;;;5054521;28;20021;-74
2021/10/16 02:27:40;;;;;;;19.33;5.85;;;7.60;92.80;;;;;;5072091;28;20074;-75
2021/10/16 02:30:08;;;;;;;21.70;6.47;;;7.60;92.80;;;;;;5072417;28;20090;-75
2021/10/16 02:32:33;;;;;;;17.85;4.60;;;7.60;92.70;;;;;;5054053;28;20025;-75
2021/10/16 02:34:59;;;;;;;17.48;4.95;;;7.70;92.80;;;;;;5072637;28;20032;-75
2021/10/16 02:37:25;;;;;;;14.90;3.45;;;7.70;92.90;;;;;;5073363;28;20060;-75
2021/10/16 02:39:50;;;;;;;21.77;4.53;;;7.70;93.00;;;;;;5076026;28;20179;-74
2021/10/16 02:42:16;;;;;;;13.25;3.20;;;7.70;93.10;;;;;;5076801;28;20028;-74
2021/10/16 02:44:41;;;;;;;18.52;3.58;;;7.80;93.00;;;;;;5076990;28;20078;-75
2021/10/16 02:47:07;;;;;;;16.73;3.67;;;7.80;93.00;;;;;;5076975;28;20024;-75
2021/10/16 02:49:33;;;;;;;19.45;3.70;;;7.80;93.10;;;;;;5077943;28;20043;-75
2021/10/16 02:51:58;;;;;;;16.02;4.40;;;7.80;93.10;;;;;;5084865;28;20128;-74
2021/10/16 02:54:26;;;;;;;17.00;4.35;;;7.90;93.00;;;;;;5073876;28;20029;-75
2021/10/16 02:56:52;;;;;;;16.38;3.92;;;7.90;93.00;;;;;;5080986;28;20092;-74
2021/10/16 02:59:18;;;;;;;12.25;4.32;;;8.00;93.10;;;;;;5076437;28;20048;-75
2021/10/16 03:01:43;;;;;;;18.85;4.60;;;8.00;93.10;;;;;;5063501;28;20012;-75
2021/10/16 03:04:09;;;;;;;15.50;3.97;;;8.00;93.10;;;;;;5058011;28;20052;-75
2021/10/16 03:06:34;;;;;;;15.35;3.53;;;8.00;93.10;;;;;;5075568;28;20440;-75
2021/10/16 03:09:00;;;;;;;14.90;3.50;;;8.10;93.20;;;;;;5057771;28;20024;-75
2021/10/16 03:11:26;;;;;;;12.38;3.40;;;8.10;93.30;;;;;;5057558;28;20387;-75
2021/10/16 03:13:51;;;;;;;14.23;3.63;;;8.10;93.10;;;;;;5075595;28;20060;-75
2021/10/16 03:16:17;;;;;;;15.23;3.33;;;8.20;93.10;;;;;;5075368;28;20199;-74
2021/10/16 03:18:46;;;;;;;16.73;3.70;;;8.20;93.00;;;;;;5057384;28;20480;-74
2021/10/16 03:21:12;;;;;;;10.75;3.30;;;8.20;93.10;;;;;;5075258;28;20468;-74
2021/10/16 03:23:37;;;;;;;16.60;3.28;;;8.30;93.20;;;;;;5074949;28;20028;-74
2021/10/16 03:26:03;;;;;;;16.25;3.13;;;8.40;93.20;;;;;;5057597;28;20361;-75
2021/10/16 03:28:29;;;;;;;14.10;3.65;;;8.40;93.20;;;;;;5057223;28;20609;-75
2021/10/16 03:30:54;;;;;;;15.70;4.45;;;8.40;93.20;;;;;;5075148;28;20112;-75
2021/10/16 03:33:20;;;;;;;13.20;2.92;;;8.40;93.10;;;;;;5075402;28;20036;-74
2021/10/16 03:35:46;;;;;;;15.80;2.95;;;8.40;93.10;;;;;;5075530;28;20461;-75
2021/10/16 03:38:11;;;;;;;12.88;3.15;;;8.50;93.20;;;;;;5075333;28;20430;-75
2021/10/16 03:40:37;;;;;;;12.98;3.00;;;8.50;92.90;;;;;;5057016;28;20067;-74
2021/10/16 03:43:03;;;;;;;15.00;3.67;;;8.50;93.00;;;;;;5057395;28;20463;-74
2021/10/16 03:45:28;;;;;;;12.65;2.80;;;8.50;92.90;;;;;;5075818;28;20029;-74
2021/10/16 03:47:54;;;;;;;13.23;3.03;;;8.50;92.80;;;;;;5057126;28;20452;-75
2021/10/16 03:50:20;;;;;;;15.15;3.58;;;8.60;92.90;;;;;;5056466;28;20032;-75
2021/10/16 03:52:45;;;;;;;15.63;3.33;;;8.60;92.90;;;;;;5074565;28;20124;-74
2021/10/16 03:55:11;;;;;;;13.45;2.88;;;8.60;92.80;;;;;;5075139;28;20317;-75
2021/10/16 03:57:37;;;;;;;14.75;3.60;;;8.70;92.60;;;;;;5057231;28;20024;-75
2021/10/16 04:00:04;;;;;;;21.75;3.83;;;8.70;92.60;;;;;;5077127;28;20039;-75
2021/10/16 04:02:30;;;;;;;16.70;3.10;;;8.70;92.60;;;;;;5076108;28;20036;-75
2021/10/16 04:04:55;;;;;;;14.05;2.72;;;8.70;92.80;;;;;;5074984;28;20436;-74
2021/10/16 04:07:21;;;;;;;16.48;3.47;;;8.70;92.80;;;;;;5056957;28;20104;-75
2021/10/16 04:09:46;;;;;;;16.05;3.22;;;8.80;92.80;;;;;;5074943;28;20154;-74
2021/10/16 04:12:12;;;;;;;13.70;3.72;;;8.80;92.90;;;;;;5075026;28;20039;-74
2021/10/16 04:14:38;;;;;;;10.98;2.90;;;8.80;92.90;;;;;;5057224;28;20021;-75
2021/10/16 04:17:04;;;;;;;13.93;2.60;;;8.80;92.90;;;;;;5057290;28;20103;-75
2021/10/16 04:19:29;;;;;;;11.48;2.58;;;8.80;92.90;;;;;;5056856;28;20017;-75
2021/10/16 04:21:55;;;;;;;9.68;3.38;;;8.80;92.80;;;;;;5056987;28;20047;-76
2021/10/16 04:24:21;;;;;;;11.25;2.75;;;8.90;92.90;;;;;;5075624;28;20056;-75
2021/10/16 04:26:47;;;;;;;10.38;2.65;;;8.90;92.90;;;;;;5057011;28;20078;-75
2021/10/16 04:29:13;;;;;;;19.77;3.67;;;8.90;93.00;;;;;;5075856;28;20097;-75
2021/10/16 04:31:38;;;;;;;13.18;3.55;;;8.90;93.00;;;;;;5058228;28;20021;-75
2021/10/16 04:34:06;;;;;;;12.85;3.22;;;8.90;92.90;;;;;;5060913;28;20047;-75
2021/10/16 04:36:35;;;;;;;12.48;2.72;;;8.90;92.90;;;;;;5077490;28;20025;-75
2021/10/16 04:39:00;;;;;;;11.23;2.63;;;8.90;92.90;;;;;;5076011;28;20020;-75
2021/10/16 04:41:27;;;;;;;16.38;3.13;;;8.90;92.80;;;;;;5076740;28;20483;-74
2021/10/16 04:43:53;;;;;;;13.30;3.00;;;9.00;92.90;;;;;;5069378;28;20024;-74
2021/10/16 04:46:23;;;;;;;12.32;3.25;;;9.10;92.90;;;;;;5096947;28;20016;-74
2021/10/16 04:48:48;;;;;;;9.05;2.53;;;9.00;92.90;;;;;;5089572;28;20031;-74
2021/10/16 04:51:14;;;;;;;15.60;2.80;;;9.10;92.90;;;;;;5060044;28;20020;-74
2021/10/16 04:53:40;;;;;;;15.15;2.97;;;9.10;92.80;;;;;;5056670;28;20512;-74
2021/10/16 04:56:06;;;;;;;14.68;2.78;;;9.10;92.70;;;;;;5056310;28;20033;-74
2021/10/16 04:58:33;;;;;;;14.77;2.83;;;9.10;92.70;;;;;;5056452;28;20483;-76
2021/10/16 05:00:58;;;;;;;13.95;2.45;;;9.10;92.80;;;;;;5073672;28;20016;-75
2021/10/16 05:03:24;;;;;;;14.35;2.58;;;9.10;92.90;;;;;;5073586;28;20100;-75
2021/10/16 05:05:50;;;;;;;12.40;3.25;;;9.10;92.90;;;;;;5073357;28;20388;-75
2021/10/16 05:08:15;;;;;;;10.52;2.35;;;9.20;92.80;;;;;;5055932;28;20059;-75
2021/10/16 05:10:41;;;;;;;13.27;2.45;;;9.20;92.90;;;;;;5055671;28;20027;-75
2021/10/16 05:13:07;;;;;;;14.18;3.13;;;9.20;92.90;;;;;;5073525;28;20093;-75
2021/10/16 05:15:32;;;;;;;14.05;2.97;;;9.20;93.20;;;;;;5055874;28;20033;-75
2021/10/16 05:17:58;;;;;;;14.30;2.70;;;9.20;92.90;;;;;;5055471;28;20021;-75
2021/10/16 05:20:24;;;;;;;10.60;2.90;;;9.20;92.80;;;;;;5055706;28;20035;-75
2021/10/16 05:22:49;;;;;;;16.52;5.03;;;9.20;92.80;;;;;;5055416;28;20056;-74
2021/10/16 05:25:15;;;;;;;15.52;3.03;;;9.30;92.70;;;;;;5056018;28;20047;-75
2021/10/16 05:27:42;;;;;;;12.02;2.60;;;9.30;92.60;;;;;;5055576;28;20449;-75
2021/10/16 05:30:08;;;;;;;13.50;2.47;;;9.30;92.50;;;;;;5073603;28;20093;-74
2021/10/16 05:32:35;;;;;;;14.63;2.88;;;9.30;92.50;;;;;;5054729;28;20123;-75
2021/10/16 05:35:00;;;;;;;15.25;2.80;;;9.30;92.90;;;;;;5054995;28;20021;-75
2021/10/16 05:37:26;;;;;;;7.05;2.35;;;9.30;92.70;;;;;;5073158;28;20025;-75
2021/10/16 05:39:52;;;;;;;12.00;3.05;;;9.30;92.70;;;;;;5072509;28;20020;-75
2021/10/16 05:42:17;;;;;;;12.85;3.30;;;9.40;92.80;;;;;;5072991;28;20036;-75
2021/10/16 05:44:43;;;;;;;14.75;4.03;;;9.40;92.70;;;;;;5054848;28;20025;-74
2021/10/16 05:47:09;;;;;;;16.50;3.20;;;9.40;92.70;;;;;;5055016;28;20051;-75
2021/10/16 05:49:34;;;;;;;10.52;3.28;;;9.40;92.50;;;;;;5072952;28;20617;-75
2021/10/16 05:52:00;;;;;;;12.45;3.10;;;9.40;92.50;;;;;;5072785;28;20099;-75
2021/10/16 05:54:26;;;;;;;12.52;3.30;;;9.40;92.50;;;;;;5072856;28;20028;-75
2021/10/16 05:56:51;;;;;;;10.43;2.92;;;9.40;92.60;;;;;;5072666;28;20017;-74
2021/10/16 05:59:17;;;;;;;11.55;3.42;;;9.40;92.70;;;;;;5072276;28;20380;-74
2021/10/16 06:01:43;;;;;;;16.27;4.32;;;9.40;92.90;;;;;;5072407;28;20029;-75
2021/10/16 06:04:08;;;;;;;15.48;3.45;;;9.40;92.90;;;;;;5055802;28;20040;-74
2021/10/16 06:06:35;;;;;;;14.65;3.78;;;9.40;92.90;;;;;;5073236;28;20437;-74
2021/10/16 06:09:01;;;;;;;11.25;3.30;;;9.50;92.90;;;;;;5072895;28;20024;-74
2021/10/16 06:11:26;;;;;;;9.90;3.13;;;9.50;93.00;;;;;;5072538;28;20069;-75
2021/10/16 06:13:52;;;;;;;16.02;4.07;;;9.40;93.10;;;;;;5053854;28;20111;-75
2021/10/16 06:16:20;;;;;;;15.18;4.35;;;9.50;93.10;;;;;;5072502;28;20146;-75
2021/10/16 06:18:46;;;;;;;11.65;3.80;;;9.50;93.00;;;;;;5072189;28;20035;-75
2021/10/16 06:21:12;;;;;;;15.63;5.35;;;9.50;92.90;;;;;;5053171;28;20135;-75
2021/10/16 06:23:39;;;;;;;13.50;4.30;;;9.50;92.90;;;;;;5052800;28;20042;-74
2021/10/16 06:26:09;;;;;;;17.92;5.07;;;9.50;92.90;;;;;;5052702;28;20984;-75
2021/10/16 06:28:35;;;;;;;14.90;4.05;;;9.50;93.00;;;;;;5070759;28;20130;-75
2021/10/16 06:31:04;;;;;;;13.50;5.32;;;9.50;93.00;;;;;;5084064;28;20024;-74
2021/10/16 06:33:30;;;;;;;18.27;4.97;;;9.50;93.00;;;;;;5055097;28;20028;-75
2021/10/16 06:35:59;;;;;;;17.75;5.22;;;9.60;93.30;;;;;;5063724;28;20036;-76
2021/10/16 06:38:26;;;;;;;15.10;5.22;;;9.60;93.10;;;;;;5080342;28;20024;-74
2021/10/16 06:40:52;;;;;;;20.60;4.93;;;9.60;93.10;;;;;;5057981;28;20025;-75
2021/10/16 06:43:17;;;;;;;16.38;5.15;;;9.60;93.00;;;;;;5072857;28;20062;-75
2021/10/16 06:45:43;;;;;;;18.95;5.15;;;9.60;93.00;;;;;;5070680;28;20025;-75
2021/10/16 06:48:08;;;;;;;20.50;6.28;;;9.60;92.90;;;;;;5071233;28;20137;-75
2021/10/16 06:50:34;;;;;;;15.80;5.38;;;9.60;92.90;;;;;;5077207;28;20012;-75
2021/10/16 06:53:00;;;;;;;16.10;5.13;;;9.60;92.90;;;;;;5070575;28;20121;-75
2021/10/16 06:55:26;;;;;;;13.15;4.32;;;9.70;92.90;;;;;;5060345;28;20040;-75
2021/10/16 06:57:51;;;;;;;14.32;5.20;;;9.70;92.90;;;;;;5052362;28;20021;-75
2021/10/16 07:00:17;;;;;;;15.82;5.30;;;9.70;92.90;;;;;;5075239;28;20119;-75
2021/10/16 07:02:43;;;;;;;17.98;5.95;;;9.70;92.70;;;;;;5052880;28;20028;-74
2021/10/16 07:05:09;;;;;;;15.90;5.40;;;9.70;92.60;;;;;;5053765;28;20048;-75
2021/10/16 07:07:34;;;;;;;14.38;6.00;;;9.70;92.40;;;;;;5057470;28;20040;-75
2021/10/16 07:10:00;;;;;;;11.85;5.68;;;9.80;92.30;;;;;;5057375;28;20358;-74
2021/10/16 07:12:32;;;;;;;14.27;4.70;;;9.80;92.20;;;;;;5057276;28;20037;-74
2021/10/16 07:14:58;;;;;;;17.25;5.32;;;9.80;92.10;;;;;;5077945;28;20025;-74
2021/10/16 07:17:23;;;;;;;18.27;6.55;;;9.80;91.80;;;;;;5074563;28;20017;-74
2021/10/16 07:19:50;;;;;;;14.95;5.20;;;9.80;91.80;;;;;;5070479;28;20078;-75
2021/10/16 07:22:20;;;;;;;16.70;6.10;;;9.80;91.60;;;;;;5053150;28;20369;-74
2021/10/16 07:24:46;;;;;;;14.02;5.78;;;9.90;91.70;;;;;;5054983;28;20016;-75
2021/10/16 07:27:12;;;;;;;17.90;6.60;;;9.90;91.80;;;;;;5075551;28;20024;-75
2021/10/16 07:29:38;;;;;;;17.73;5.75;;;9.90;92.00;;;;;;5057297;28;20021;-75
2021/10/16 07:32:04;;;;;;;15.68;5.32;;;10.00;91.70;;;;;;5057412;28;20379;-75
2021/10/16 07:34:30;;;;;;;19.70;6.22;;;10.00;91.20;;;;;;5074088;28;20031;-74
2021/10/16 07:36:55;;;;;;;17.35;5.68;;;10.00;90.80;;;;;;5072154;28;20028;-75
2021/10/16 07:39:21;;;;;;;18.67;5.57;;;10.00;90.80;;;;;;5056652;28;20155;-74
2021/10/16 07:41:47;;;;;;;17.67;5.93;;;9.90;90.70;;;;;;5074787;28;20074;-74
2021/10/16 07:44:14;;;;;;;21.50;6.18;;;10.00;90.40;;;;;;5075160;28;20046;-75
2021/10/16 07:46:40;;;;;;;18.83;5.28;;;10.00;90.30;;;;;;5056364;28;20039;-75
2021/10/16 07:49:05;;;;;;;15.27;5.35;;;10.00;90.10;;;;;;5074578;28;20093;-75
2021/10/16 07:51:32;;;;;;;19.83;5.93;;;10.00;90.30;;;;;;5075013;28;20457;-75
2021/10/16 07:53:57;;;;;;;17.27;5.80;;;10.00;90.40;;;;;;5056624;28;20028;-74
2021/10/16 07:56:23;;;;;;;15.77;6.32;;;10.10;90.60;;;;;;5075157;28;20021;-74
2021/10/16 07:58:49;;;;;;;17.75;5.40;;;10.10;90.30;;;;;;5074768;28;20028;-75
2021/10/16 08:01:14;;;;;;;18.67;5.40;;;10.10;90.20;;;;;;5056908;28;20025;-75
2021/10/16 08:03:40;;;;;;;15.38;5.05;;;10.20;90.10;;;;;;5074828;28;20040;-75
2021/10/16 08:06:05;;;;;;;16.50;6.20;;;10.20;89.80;;;;;;5075899;28;20056;-74
2021/10/16 08:08:31;;;;;;;21.27;5.60;;;10.20;89.70;;;;;;5075537;28;20020;-74
2021/10/16 08:10:57;;;;;;;19.65;5.65;;;10.30;89.80;;;;;;5073091;28;20024;-74
2021/10/16 08:13:25;;;;;;;19.50;5.00;;;10.30;89.80;;;;;;5073282;28;20043;-75
2021/10/16 08:15:51;;;;;;;16.58;5.47;;;10.30;89.00;;;;;;5056683;28;20024;-74
2021/10/16 08:18:16;;;;;;;16.20;6.10;;;10.40;89.50;;;;;;5074615;28;20027;-75
2021/10/16 08:20:42;;;;;;;13.85;5.25;;;10.50;89.50;;;;;;5059797;28;20019;-75
2021/10/16 08:23:08;;;;;;;13.82;4.78;;;10.50;89.30;;;;;;5086516;28;20080;-75
2021/10/16 08:25:34;;;;;;;15.55;4.70;;;10.60;89.50;;;;;;5096721;28;20035;-74
2021/10/16 08:28:05;;;;;;;18.73;4.93;;;10.70;89.00;;;;;;5090770;28;20056;-75
2021/10/16 08:30:31;;;;;;;12.77;5.22;;;10.80;88.00;;;;;;5057040;28;20021;-74
2021/10/16 08:32:56;;;;;;;15.48;5.45;;;10.80;88.00;;;;;;5056215;28;20032;-75
2021/10/16 08:35:22;;;;;;;13.68;5.07;;;10.80;86.90;;;;;;5055914;28;20472;-74
2021/10/16 08:37:48;;;;;;;16.88;5.53;;;10.80;87.20;;;;;;5072705;28;20024;-75
2021/10/16 08:40:14;;;;;;;18.42;5.45;;;10.90;86.70;;;;;;5074176;28;20027;-75
2021/10/16 08:42:39;;;;;;;17.77;6.25;;;10.90;86.70;;;;;;5073789;28;20028;-76
2021/10/16 08:45:06;;;;;;;15.75;5.22;;;10.90;87.20;;;;;;5073342;28;20020;-76
2021/10/16 08:47:36;;;;;;;19.05;5.18;;;10.90;87.90;;;;;;5056244;28;20024;-76
2021/10/16 08:50:06;;;;;;;14.77;5.07;;;10.90;87.10;;;;;;5074011;28;20468;-76
2021/10/16 08:52:32;;;;;;;22.02;6.30;;;10.90;86.60;;;;;;5055747;28;20490;-76
2021/10/16 08:54:58;;;;;;;14.95;6.35;;;10.90;86.80;;;;;;5072447;28;20052;-76
2021/10/16 08:57:32;;;;;;;17.42;5.93;;;10.90;87.70;;;;;;5055815;28;20043;-76
2021/10/16 08:59:58;;;;;;;14.63;5.90;;;11.10;87.40;;;;;;5056112;28;20035;-76
2021/10/16 09:02:37;;;;;;;19.75;6.03;;;11.10;86.90;;;;;;5076915;28;20067;-76
2021/10/16 09:05:10;;;;;;;17.75;5.45;;;11.10;86.40;;;;;;5073907;28;20031;-76
2021/10/16 09:07:36;;;;;;;23.23;6.90;;;11.10;86.00;;;;;;5073812;28;20044;-76
2021/10/16 09:10:20;;;;;;;17.05;6.53;;;11.10;86.00;;;;;;5073297;28;20021;-75
2021/10/16 09:12:45;;;;;;;17.30;6.97;;;11.20;86.50;;;;;;5073355;28;20461;-75
2021/10/16 09:15:21;;;;;;;12.98;5.55;;;11.10;86.60;;;;;;5073058;28;20036;-74
2021/10/16 09:18:01;;;;;;;20.63;6.55;;;11.20;86.60;;;;;;5054839;28;20063;-75
2021/10/16 09:20:35;;;;;;;16.08;5.55;;;11.20;86.90;;;;;;5055139;28;20114;-75
2021/10/16 09:23:09;;;;;;;18.67;4.85;;;11.30;86.80;;;;;;5054626;28;20020;-75
2021/10/16 09:25:35;;;;;;;16.48;5.38;;;11.30;86.40;;;;;;5072776;28;20029;-75
2021/10/16 09:28:18;;;;;;;14.18;5.05;;;11.30;85.90;;;;;;5072502;28;20028;-74
2021/10/16 09:30:45;;;;;;;14.77;5.18;;;11.30;85.50;;;;;;5072660;28;20074;-74
2021/10/16 09:33:11;;;;;;;24.10;5.80;;;11.30;85.60;;;;;;5054664;28;20156;-74
2021/10/16 09:35:37;;;;;;;18.50;4.90;;;11.40;86.40;;;;;;5054732;28;20146;-74
2021/10/16 09:38:03;;;;;;;12.40;4.20;;;11.40;84.10;;;;;;5072812;28;20059;-75
2021/10/16 09:40:44;;;;;;;18.77;4.45;;;11.40;84.50;;;;;;5074762;28;20024;-75
2021/10/16 09:43:20;;;;;;;14.98;5.07;;;11.50;83.70;;;;;;5055063;28;20021;-76
2021/10/16 09:45:46;;;;;;;24.75;5.03;;;11.50;83.70;;;;;;5072533;28;20400;-75
2021/10/16 09:48:29;;;;;;;12.13;3.42;;;11.50;84.00;;;;;;5054311;28;20013;-75
2021/10/16 09:50:59;;;;;;;17.40;5.00;;;11.50;86.90;;;;;;5072973;28;20024;-74
2021/10/16 09:53:25;;;;;;;;;;;11.60;84.10;;;;;;5075813;28;20044;-73
2021/10/16 09:55:51;;;;;;;9.85;3.33;;;11.70;85.60;;;;;;5060277;28;20272;-73
2021/10/16 09:58:19;;;;;;;8.15;2.67;;;11.80;87.30;;;;;;5079856;28;20059;-74
2021/10/16 10:00:45;;;;;;;17.13;5.32;;;11.80;87.60;;;;;;5055016;28;20024;-74
2021/10/16 10:03:13;;;;;;;14.15;4.47;;;11.90;84.70;;;;;;5072374;28;20040;-74
2021/10/16 10:05:40;;;;;;;15.55;4.80;;;12.00;82.60;;;;;;5054744;28;20426;-74
2021/10/16 10:08:06;;;;;;;18.08;4.78;;;12.00;82.30;;;;;;5055393;28;20024;-74
2021/10/16 10:10:32;;;;;;;14.38;4.78;;;12.10;81.60;;;;;;5062394;28;20025;-75
2021/10/16 10:12:58;;;;;;;19.38;5.03;;;12.10;81.10;;;;;;5094245;28;20056;-75
2021/10/16 10:15:24;;;;;;;15.07;4.05;;;12.10;82.00;;;;;;5089556;28;20035;-75
2021/10/16 10:17:50;;;;;;;18.63;3.65;;;12.10;82.30;;;;;;5077251;28;20444;-74
2021/10/16 10:20:17;;;;;;;19.45;5.47;;;12.10;81.80;;;;;;5073672;28;20028;-74
2021/10/16 10:22:44;;;;;;;11.13;4.30;;;12.10;81.80;;;;;;5055355;28;20043;-74
2021/10/16 10:25:26;;;;;;;14.43;4.38;;;12.10;81.80;;;;;;5055411;28;20432;-74
2021/10/16 10:27:54;;;;;;;15.35;4.03;;;12.20;81.40;;;;;;5055348;28;20046;-73
2021/10/16 10:30:35;;;;;;;15.40;4.70;;;12.20;81.80;;;;;;5055845;28;20025;-75
2021/10/16 10:33:16;;;;;;;20.20;4.90;;;12.30;81.70;;;;;;5073922;28;20461;-75
2021/10/16 10:36:00;;;;;;;14.77;3.50;;;12.40;80.60;;;;;;5074401;28;20031;-75
2021/10/16 10:38:29;;;;;;;16.70;3.97;;;12.40;80.20;;;;;;5055421;28;20570;-75
2021/10/16 10:40:55;;;;;;;17.48;4.00;;;12.50;80.50;;;;;;5055392;28;20481;-75
2021/10/16 10:43:38;;;;;;;24.67;4.82;;;12.50;79.40;;;;;;5073842;28;20149;-75
2021/10/16 10:46:12;;;;;;;19.60;3.78;;;12.50;79.50;;;;;;5073440;28;20103;-75
2021/10/16 10:48:47;;;;;;;19.50;4.40;;;12.60;79.10;;;;;;5055286;28;20021;-75
2021/10/16 10:51:35;;;;;;;21.80;4.13;;;12.60;80.30;;;;;;5073385;28;20513;-75
2021/10/16 10:54:17;;;;;;;19.25;4.57;;;12.60;79.50;;;;;;5055570;28;20032;-74
2021/10/16 10:56:46;;;;;;;16.50;4.10;;;12.70;79.00;;;;;;5057294;28;20021;-75
2021/10/16 10:59:15;;;;;;;12.60;4.70;;;12.80;78.80;;;;;;5073787;28;20381;-75
2021/10/16 11:01:49;;;;;;;13.70;3.47;;;12.80;78.40;;;;;;5073988;28;20381;-74
2021/10/16 11:04:44;;;;;;;16.90;3.65;;;13.00;78.20;;;;;;5075563;28;20389;-75
2021/10/16 11:07:13;;;;;;;14.68;4.10;;;13.10;77.30;;;;;;5075546;28;20021;-75
2021/10/16 11:09:40;;;;;;;17.75;4.38;;;13.20;76.80;;;;;;5075406;28;20460;-75
2021/10/16 11:12:06;;;;;;;23.27;6.60;;;13.20;75.60;;;;;;5057521;28;20354;-74
2021/10/16 11:14:34;;;;;;;13.95;3.97;;;13.30;75.30;;;;;;5075659;28;20025;-75
2021/10/16 11:17:06;;;;;;;19.90;4.30;;;13.40;74.40;;;;;;5075226;28;20086;-75
2021/10/16 11:19:55;;;;;;;14.40;4.43;;;13.50;74.40;;;;;;5057280;28;20021;-75
2021/10/16 11:22:42;;;;;;;14.70;4.38;;;13.60;74.70;;;;;;5075463;28;20038;-75
2021/10/16 11:25:08;;;;;;;17.00;4.43;;;13.70;73.80;;;;;;5057252;28;20074;-74
2021/10/16 11:27:34;;;;;;;14.20;4.13;;;13.70;73.60;;;;;;5057290;28;20035;-75
2021/10/16 11:30:02;;;;;;;19.17;4.38;;;13.80;73.70;;;;;;5075897;28;20113;-75
2021/10/16 11:32:33;;;;;;;10.77;3.70;;;14.00;73.20;;;;;;5074996;28;20473;-75
2021/10/16 11:35:00;;;;;;;15.10;4.60;;;14.10;72.70;;;;;;5074746;28;20021;-75
2021/10/16 11:37:32;;;;;;;14.55;3.63;;;14.30;72.90;;;;;;5057095;28;20483;-75
2021/10/16 11:39:59;;;;;;;16.92;4.43;;;14.60;72.80;;;;;;5074795;28;20085;-73
2021/10/16 11:42:25;;;;;;;13.90;4.30;;;14.90;71.30;;;;;;5074505;28;20020;-75
2021/10/16 11:44:51;;;;;;;20.88;3.88;;;15.20;71.00;;;;;;5056540;28;20077;-75
2021/10/16 11:47:20;;;;;;;14.15;4.43;;;15.40;69.40;;;;;;5075025;28;20488;-74
2021/10/16 11:49:45;;;;;;;17.40;3.78;;;15.70;68.30;;;;;;5074517;28;20385;-75
2021/10/16 11:52:24;;;;;;;23.65;4.75;;;;;;;;;;5074642;28;20028;-75
2021/10/16 11:55:12;;;;;;;19.98;3.90;;;16.40;65.90;;;;;;5074607;28;20024;-74
2021/10/16 11:57:37;;;;;;;10.98;3.47;;;16.80;64.40;;;;;;5061126;28;20032;-74
2021/10/16 12:00:27;;;;;;;17.05;4.75;;;17.10;63.10;;;;;;5068274;28;20044;-75
2021/10/16 12:02:54;;;;;;;12.65;2.85;;;17.30;62.50;;;;;;5084113;28;20048;-75
2021/10/16 12:05:21;;;;;;;13.30;3.60;;;17.40;61.30;;;;;;5076930;28;20025;-75
2021/10/16 12:07:48;;;;;;;13.85;3.80;;;17.30;61.80;;;;;;5074202;28;20064;-81
2021/10/16 12:10:27;;;;;;;15.00;3.40;;;17.10;61.20;;;;;;5055760;28;20554;-74
2021/10/16 12:13:02;;;;;;;12.85;3.25;;;17.00;61.10;;;;;;5055815;28;20480;-75
2021/10/16 12:15:50;;;;;;;15.80;3.47;;;16.80;60.90;;;;;;5056073;28;20020;-75
2021/10/16 12:18:24;;;;;;;15.57;3.38;;;16.60;59.90;;;;;;5073978;28;20639;-75
2021/10/16 12:20:53;;;;;;;14.65;3.13;;;16.40;60.20;;;;;;5073759;28;20012;-77
2021/10/16 12:23:20;;;;;;;12.70;3.13;;;16.10;61.60;;;;;;5056029;28;20295;-77
2021/10/16 12:25:51;;;;;;;13.48;3.38;;;15.90;61.80;;;;;;5055697;28;20013;-75
2021/10/16 12:28:18;;;;;;;13.75;3.13;;;15.80;61.40;;;;;;5056169;28;20029;-75
2021/10/16 12:31:07;;;;;;;12.68;2.53;;;15.70;62.00;;;;;;5055826;28;20020;-75
2021/10/16 12:34:01;;;;;;;10.75;2.92;;;15.70;67.20;;;;;;5074412;28;20036;-74
2021/10/16 12:36:30;;;;;;;14.15;3.55;;;15.50;63.20;;;;;;5076715;28;20029;-75
2021/10/16 12:38:56;;;;;;;15.13;3.92;;;15.50;64.00;;;;;;5063589;28;20354;-75
2021/10/16 12:41:33;;;;;;;15.73;4.18;;;15.40;63.90;;;;;;5078424;28;20031;-74
2021/10/16 12:44:18;;;;;;;13.50;3.67;;;15.40;63.10;;;;;;5073792;28;20017;-74
2021/10/16 12:46:46;;;;;;;14.25;3.42;;;15.30;65.00;;;;;;5073208;28;20013;-76